Wetterdaten: Woche 23.12.13 - 29.12.13 (KW52)
Datum Zeit Temp. Aussen +5cm Feuchte Auss Luftdruck Regen Sonnenschein Regendauer UV Solar Windben
23.12.2013 00:00 7,0 C 5,1 C 90 % 1014,5 hPa 0,0 l/m 0,00 h 0,00 h 0,0 UV-I 0 W/m 12,5 km/h (3 Bft)
23.12.2013 01:00 6,9 C 5,1 C 90 % 1015,1 hPa 0,0 l/m 0,00 h 0,00 h 0,0 UV-I 0 W/m 13,2 km/h (3 Bft)
23.12.2013 02:00 7,0 C 5,6 C 89 % 1015,6 hPa 0,0 l/m 0,00 h 0,10 h 0,0 UV-I 0 W/m 15,0 km/h (3 Bft)
23.12.2013 03:00 6,8 C 5,0 C 87 % 1016,2 hPa 0,0 l/m 0,00 h 0,07 h 0,0 UV-I 0 W/m 13,8 km/h (3 Bft)
23.12.2013 04:00 6,5 C 4,9 C 88 % 1016,3 hPa 0,0 l/m 0,00 h 0,00 h 0,0 UV-I 0 W/m 10,6 km/h (2 Bft)
23.12.2013 05:00 6,3 C 5,0 C 90 % 1016,4 hPa 0,0 l/m 0,00 h 0,00 h 0,0 UV-I 0 W/m 13,8 km/h (3 Bft)
23.12.2013 06:00 6,2 C 4,4 C 89 % 1016,1 hPa 0,0 l/m 0,00 h 0,00 h 0,0 UV-I 0 W/m 12,2 km/h (2 Bft)
23.12.2013 07:00 5,7 C 4,1 C 90 % 1016,1 hPa 0,0 l/m 0,00 h 0,00 h 0,0 UV-I 0 W/m 7,7 km/h (2 Bft)
23.12.2013 08:00 5,2 C 3,3 C 91 % 1015,9 hPa 0,0 l/m 0,00 h 0,00 h 0,0 UV-I 9 W/m 5,1 km/h (1 Bft)
23.12.2013 09:00 4,9 C 3,3 C 93 % 1015,6 hPa 0,0 l/m 0,00 h 0,00 h 0,0 UV-I 35 W/m 7,9 km/h (2 Bft)
23.12.2013 10:00 6,0 C 5,0 C 92 % 1015,3 hPa 0,0 l/m 0,40 h 0,00 h 0,0 UV-I 103 W/m 14,7 km/h (3 Bft)
23.12.2013 11:00 8,2 C 6,5 C 83 % 1014,7 hPa 0,0 l/m 1,00 h 0,00 h 0,0 UV-I 179 W/m 14,0 km/h (3 Bft)
23.12.2013 12:00 9,2 C 7,3 C 80 % 1013,4 hPa 0,0 l/m 0,47 h 0,00 h 0,0 UV-I 155 W/m 17,9 km/h (3 Bft)
23.12.2013 13:00 9,8 C 8,3 C 78 % 1011,8 hPa 0,0 l/m 0,40 h 0,00 h 0,0 UV-I 130 W/m 16,3 km/h (3 Bft)
23.12.2013 14:00 9,9 C 8,3 C 79 % 1010,3 hPa 0,0 l/m 0,03 h 0,00 h 0,0 UV-I 82 W/m 19,8 km/h (4 Bft)
23.12.2013 15:00 10,1 C 8,3 C 79 % 1008,8 hPa 0,0 l/m 0,00 h 0,00 h 0,0 UV-I 28 W/m 18,2 km/h (3 Bft)
23.12.2013 16:00 10,2 C 8,3 C 80 % 1007,9 hPa 0,0 l/m 0,00 h 0,00 h 0,0 UV-I 8 W/m 18,6 km/h (3 Bft)
23.12.2013 17:00 10,2 C 8,3 C 81 % 1006,8 hPa 0,0 l/m 0,00 h 0,00 h 0,0 UV-I 0 W/m 22,1 km/h (4 Bft)
23.12.2013 18:00 10,3 C 8,6 C 80 % 1005,2 hPa 0,0 l/m 0,00 h 0,00 h 0,0 UV-I 0 W/m 23,3 km/h (4 Bft)
23.12.2013 19:00 10,5 C 8,7 C 80 % 1003,7 hPa 0,0 l/m 0,00 h 0,00 h 0,0 UV-I 0 W/m 25,8 km/h (4 Bft)
23.12.2013 20:00 10,7 C 8,9 C 78 % 1002,6 hPa 0,0 l/m 0,00 h 0,00 h 0,0 UV-I 0 W/m 22,5 km/h (4 Bft)
23.12.2013 21:00 11,3 C 9,3 C 74 % 1001,6 hPa 0,0 l/m 0,00 h 0,00 h 0,0 UV-I 0 W/m 29,3 km/h (5 Bft)
23.12.2013 22:00 11,6 C 9,4 C 71 % 1000,6 hPa 0,0 l/m 0,00 h 0,00 h 0,0 UV-I 0 W/m 31,6 km/h (5 Bft)
23.12.2013 23:00 11,7 C 9,6 C 70 % 999,5 hPa 0,0 l/m 0,00 h 0,00 h 0,0 UV-I 0 W/m 30,0 km/h (5 Bft)
24.12.2013 00:00 11,6 C 9,5 C 72 % 998,8 hPa 0,0 l/m 0,00 h 0,20 h 0,0 UV-I 0 W/m 30,0 km/h (5 Bft)
24.12.2013 01:00 11,4 C 9,4 C 72 % 997,9 hPa 0,0 l/m 0,00 h 0,00 h 0,0 UV-I 0 W/m 27,8 km/h (4 Bft)
24.12.2013 02:00 11,2 C 9,4 C 72 % 997,0 hPa 0,0 l/m 0,00 h 0,00 h 0,0 UV-I 0 W/m 25,5 km/h (4 Bft)
24.12.2013 03:00 11,1 C 9,4 C 71 % 996,2 hPa 0,0 l/m 0,00 h 0,00 h 0,0 UV-I 0 W/m 25,5 km/h (4 Bft)
24.12.2013 04:00 11,1 C 9,4 C 69 % 995,0 hPa 0,0 l/m 0,00 h 0,00 h 0,0 UV-I 0 W/m 29,6 km/h (5 Bft)
24.12.2013 05:00 11,7 C 10,0 C 66 % 994,0 hPa 0,0 l/m 0,00 h 0,07 h 0,0 UV-I 0 W/m 33,8 km/h (5 Bft)
24.12.2013 06:00 11,4 C 8,7 C 69 % 993,3 hPa 0,0 l/m 0,00 h 0,97 h 0,0 UV-I 0 W/m 32,0 km/h (5 Bft)
24.12.2013 07:00 11,2 C 8,9 C 73 % 993,0 hPa 0,0 l/m 0,00 h 0,67 h 0,0 UV-I 0 W/m 35,0 km/h (5 Bft)
24.12.2013 08:00 11,5 C 9,5 C 73 % 992,6 hPa 0,0 l/m 0,00 h 0,40 h 0,0 UV-I 0 W/m 33,5 km/h (5 Bft)
24.12.2013 09:00 10,7 C 7,9 C 82 % 992,5 hPa 0,8 l/m 0,00 h 1,00 h 0,0 UV-I 14 W/m 36,4 km/h (5 Bft)
24.12.2013 10:00 11,0 C 8,3 C 81 % 992,3 hPa 0,0 l/m 0,00 h 1,00 h 0,0 UV-I 33 W/m 35,3 km/h (5 Bft)
24.12.2013 11:00 11,9 C 10,2 C 77 % 991,8 hPa 0,0 l/m 0,00 h 0,37 h 0,0 UV-I 43 W/m 38,0 km/h (5 Bft)
24.12.2013 12:00 12,4 C 10,5 C 75 % 991,3 hPa 0,0 l/m 0,00 h 0,47 h 0,0 UV-I 28 W/m 33,2 km/h (5 Bft)
24.12.2013 13:00 12,4 C 10,0 C 77 % 990,5 hPa 0,2 l/m 0,00 h 0,93 h 0,0 UV-I 38 W/m 36,8 km/h (5 Bft)
24.12.2013 14:00 12,5 C 10,6 C 77 % 989,9 hPa 0,0 l/m 0,00 h 0,63 h 0,0 UV-I 34 W/m 33,2 km/h (5 Bft)
24.12.2013 15:00 12,7 C 10,8 C 77 % 989,3 hPa 0,0 l/m 0,00 h 0,60 h 0,0 UV-I 19 W/m 31,0 km/h (5 Bft)
24.12.2013 16:00 12,9 C 11,0 C 76 % 988,7 hPa 0,0 l/m 0,00 h 0,30 h 0,0 UV-I 7 W/m 33,6 km/h (5 Bft)
24.12.2013 17:00 12,6 C 9,9 C 79 % 988,6 hPa 0,2 l/m 0,00 h 0,90 h 0,0 UV-I 0 W/m 31,8 km/h (5 Bft)
24.12.2013 18:00 12,1 C 9,3 C 82 % 988,3 hPa 0,2 l/m 0,00 h 1,00 h 0,0 UV-I 0 W/m 27,5 km/h (4 Bft)
24.12.2013 19:00 12,0 C 9,6 C 83 % 988,1 hPa 0,0 l/m 0,00 h 0,90 h 0,0 UV-I 0 W/m 24,0 km/h (4 Bft)
24.12.2013 20:00 12,0 C 9,3 C 82 % 988,6 hPa 1,8 l/m 0,00 h 0,77 h 0,0 UV-I 0 W/m 20,5 km/h (4 Bft)
24.12.2013 21:00 8,6 C 6,2 C 89 % 989,4 hPa 1,4 l/m 0,00 h 0,77 h 0,0 UV-I 0 W/m 3,5 km/h (1 Bft)
24.12.2013 22:00 7,7 C 6,1 C 93 % 988,7 hPa 0,2 l/m 0,00 h 0,23 h 0,0 UV-I 0 W/m 1,0 km/h (0 Bft)
24.12.2013 23:00 7,4 C 6,1 C 95 % 987,9 hPa 0,8 l/m 0,00 h 0,93 h 0,0 UV-I 0 W/m 6,2 km/h (2 Bft)
25.12.2013 00:00 7,4 C 6,3 C 96 % 986,8 hPa 2,6 l/m 0,00 h 1,00 h 0,0 UV-I 0 W/m 6,3 km/h (2 Bft)
25.12.2013 01:00 7,8 C 6,7 C 97 % 985,4 hPa 1,0 l/m 0,00 h 1,00 h 0,0 UV-I 0 W/m 3,9 km/h (1 Bft)
25.12.2013 02:00 8,0 C 7,0 C 97 % 984,1 hPa 0,8 l/m 0,00 h 1,00 h 0,0 UV-I 0 W/m 9,9 km/h (2 Bft)
25.12.2013 03:00 9,0 C 7,5 C 98 % 984,2 hPa 2,8 l/m 0,00 h 1,00 h 0,0 UV-I 0 W/m 15,5 km/h (3 Bft)
25.12.2013 04:00 8,7 C 7,2 C 97 % 984,9 hPa 0,8 l/m 0,00 h 0,97 h 0,0 UV-I 0 W/m 12,7 km/h (3 Bft)
25.12.2013 05:00 8,7 C 7,2 C 97 % 985,4 hPa 0,2 l/m 0,00 h 0,30 h 0,0 UV-I 0 W/m 13,9 km/h (3 Bft)
25.12.2013 06:00 8,8 C 7,2 C 95 % 986,8 hPa 0,0 l/m 0,00 h 0,00 h 0,0 UV-I 0 W/m 13,0 km/h (3 Bft)
25.12.2013 07:00 8,8 C 6,9 C 91 % 988,1 hPa 0,0 l/m 0,00 h 0,00 h 0,0 UV-I 0 W/m 13,8 km/h (3 Bft)
25.12.2013 08:00 8,4 C 6,4 C 87 % 988,9 hPa 0,0 l/m 0,00 h 0,00 h 0,0 UV-I 8 W/m 7,5 km/h (2 Bft)
25.12.2013 09:00 8,0 C 6,1 C 88 % 989,3 hPa 0,0 l/m 0,00 h 0,00 h 0,0 UV-I 23 W/m 1,6 km/h (1 Bft)
25.12.2013 10:00 7,9 C 6,3 C 89 % 990,0 hPa 0,0 l/m 0,17 h 0,00 h 0,0 UV-I 83 W/m 2,0 km/h (1 Bft)
25.12.2013 11:00 8,4 C 7,2 C 86 % 990,2 hPa 0,0 l/m 0,00 h 0,00 h 0,0 UV-I 91 W/m 6,2 km/h (2 Bft)
25.12.2013 12:00 8,5 C 7,2 C 84 % 990,6 hPa 0,0 l/m 0,00 h 0,00 h 0,0 UV-I 93 W/m 5,1 km/h (1 Bft)
25.12.2013 13:00 8,4 C 7,2 C 80 % 990,9 hPa 0,0 l/m 0,00 h 0,00 h 0,0 UV-I 71 W/m 3,7 km/h (1 Bft)
25.12.2013 14:00 8,3 C 6,8 C 82 % 990,9 hPa 0,0 l/m 0,00 h 0,00 h 0,0 UV-I 61 W/m 2,5 km/h (1 Bft)
25.12.2013 15:00 8,1 C 6,6 C 83 % 991,6 hPa 0,0 l/m 0,00 h 0,00 h 0,0 UV-I 34 W/m 2,6 km/h (1 Bft)
25.12.2013 16:00 7,7 C 5,5 C 84 % 991,6 hPa 0,0 l/m 0,00 h 0,00 h 0,0 UV-I 9 W/m 0,5 km/h (0 Bft)
25.12.2013 17:00 6,8 C 3,8 C 86 % 991,6 hPa 0,0 l/m 0,00 h 0,00 h 0,0 UV-I 0 W/m 0,0 km/h (0 Bft)
25.12.2013 18:00 5,6 C 2,7 C 88 % 992,3 hPa 0,0 l/m 0,00 h 0,00 h 0,0 UV-I 0 W/m 0,0 km/h (0 Bft)
25.12.2013 19:00 4,7 C 2,5 C 91 % 992,4 hPa 0,0 l/m 0,00 h 0,00 h 0,0 UV-I 0 W/m 0,5 km/h (0 Bft)
25.12.2013 20:00 4,0 C 1,6 C 91 % 992,7 hPa 0,0 l/m 0,00 h 0,00 h 0,0 UV-I 0 W/m 0,0 km/h (0 Bft)
25.12.2013 21:00 3,2 C 1,1 C 92 % 992,5 hPa 0,0 l/m 0,00 h 0,00 h 0,0 UV-I 0 W/m 0,0 km/h (0 Bft)
25.12.2013 22:00 2,6 C 0,7 C 93 % 992,4 hPa 0,0 l/m 0,00 h 0,00 h 0,0 UV-I 0 W/m 0,0 km/h (0 Bft)
25.12.2013 23:00 2,4 C 1,1 C 95 % 992,7 hPa 0,0 l/m 0,00 h 0,00 h 0,0 UV-I 0 W/m 0,6 km/h (0 Bft)
26.12.2013 00:00 2,9 C 1,8 C 96 % 992,7 hPa 0,0 l/m 0,00 h 0,00 h 0,0 UV-I 0 W/m 0,1 km/h (0 Bft)
26.12.2013 01:00 3,2 C 2,0 C 96 % 992,6 hPa 0,0 l/m 0,00 h 0,00 h 0,0 UV-I 0 W/m 2,8 km/h (1 Bft)
26.12.2013 02:00 3,7 C 2,8 C 97 % 992,6 hPa 0,0 l/m 0,00 h 0,00 h 0,0 UV-I 0 W/m 0,7 km/h (0 Bft)
26.12.2013 03:00 3,8 C 2,8 C 97 % 992,5 hPa 0,0 l/m 0,00 h 0,00 h 0,0 UV-I 0 W/m 1,4 km/h (1 Bft)
26.12.2013 04:00 4,0 C 3,0 C 97 % 992,9 hPa 0,0 l/m 0,00 h 0,00 h 0,0 UV-I 0 W/m 2,1 km/h (1 Bft)
26.12.2013 05:00 4,5 C 3,7 C 98 % 993,2 hPa 0,0 l/m 0,00 h 0,00 h 0,0 UV-I 0 W/m 7,5 km/h (2 Bft)
26.12.2013 06:00 4,8 C 3,9 C 98 % 993,3 hPa 0,0 l/m 0,00 h 0,00 h 0,0 UV-I 0 W/m 0,1 km/h (0 Bft)
26.12.2013 07:00 4,7 C 3,0 C 97 % 993,5 hPa 0,0 l/m 0,00 h 0,00 h 0,0 UV-I 0 W/m 0,0 km/h (0 Bft)
26.12.2013 08:00 4,0 C 2,0 C 97 % 994,1 hPa 0,0 l/m 0,00 h 0,00 h 0,0 UV-I 5 W/m 0,0 km/h (0 Bft)
26.12.2013 09:00 3,7 C 3,0 C 97 % 994,6 hPa 0,0 l/m 0,00 h 0,00 h 0,0 UV-I 24 W/m 0,0 km/h (0 Bft)
26.12.2013 10:00 4,3 C 4,1 C 97 % 995,4 hPa 0,0 l/m 0,00 h 0,00 h 0,0 UV-I 64 W/m 0,0 km/h (0 Bft)
26.12.2013 11:00 6,0 C 5,4 C 97 % 995,8 hPa 0,0 l/m 0,00 h 0,00 h 0,0 UV-I 92 W/m 0,1 km/h (0 Bft)
26.12.2013 12:00 7,2 C 6,5 C 93 % 996,0 hPa 0,0 l/m 0,17 h 0,00 h 0,0 UV-I 123 W/m 4,1 km/h (1 Bft)
26.12.2013 13:00 7,8 C 7,0 C 89 % 996,2 hPa 0,0 l/m 0,07 h 0,00 h 0,0 UV-I 117 W/m 8,1 km/h (2 Bft)
26.12.2013 14:00 7,5 C 6,6 C 89 % 996,8 hPa 0,0 l/m 0,00 h 0,00 h 0,0 UV-I 72 W/m 6,3 km/h (2 Bft)
26.12.2013 15:00 7,3 C 6,1 C 90 % 997,9 hPa 0,0 l/m 0,00 h 0,00 h 0,0 UV-I 19 W/m 5,6 km/h (1 Bft)
26.12.2013 16:00 7,0 C 5,3 C 89 % 998,5 hPa 0,0 l/m 0,00 h 0,00 h 0,0 UV-I 16 W/m 4,8 km/h (1 Bft)
26.12.2013 17:00 6,2 C 4,4 C 89 % 999,6 hPa 0,0 l/m 0,00 h 0,00 h 0,0 UV-I 0 W/m 1,3 km/h (1 Bft)
26.12.2013 18:00 5,7 C 4,1 C 91 % 1000,4 hPa 0,0 l/m 0,00 h 0,00 h 0,0 UV-I 0 W/m 1,4 km/h (1 Bft)
26.12.2013 19:00 5,2 C 3,6 C 92 % 1001,5 hPa 0,0 l/m 0,00 h 0,00 h 0,0 UV-I 0 W/m 2,2 km/h (1 Bft)
26.12.2013 20:00 5,0 C 3,5 C 93 % 1002,1 hPa 0,0 l/m 0,00 h 0,00 h 0,0 UV-I 0 W/m 1,8 km/h (1 Bft)
26.12.2013 21:00 4,7 C 3,2 C 93 % 1002,8 hPa 0,0 l/m 0,00 h 0,00 h 0,0 UV-I 0 W/m 1,6 km/h (1 Bft)
26.12.2013 22:00 4,4 C 2,8 C 94 % 1003,0 hPa 0,0 l/m 0,00 h 0,00 h 0,0 UV-I 0 W/m 2,0 km/h (1 Bft)
26.12.2013 23:00 4,0 C 2,5 C 94 % 1003,1 hPa 0,0 l/m 0,00 h 0,00 h 0,0 UV-I 0 W/m 4,5 km/h (1 Bft)
27.12.2013 00:00 3,7 C 1,9 C 95 % 1003,2 hPa 0,0 l/m 0,00 h 0,00 h 0,0 UV-I 0 W/m 1,0 km/h (0 Bft)
27.12.2013 01:00 3,1 C 1,7 C 95 % 1002,9 hPa 0,0 l/m 0,00 h 0,00 h 0,0 UV-I 0 W/m 6,2 km/h (2 Bft)
27.12.2013 02:00 3,2 C 2,0 C 95 % 1002,6 hPa 0,0 l/m 0,00 h 0,00 h 0,0 UV-I 0 W/m 8,6 km/h (2 Bft)
27.12.2013 03:00 3,1 C 1,7 C 94 % 1002,4 hPa 0,0 l/m 0,00 h 0,00 h 0,0 UV-I 0 W/m 9,2 km/h (2 Bft)
27.12.2013 04:00 3,1 C 2,0 C 93 % 1001,8 hPa 0,0 l/m 0,00 h 0,00 h 0,0 UV-I 0 W/m 15,7 km/h (3 Bft)
27.12.2013 05:00 3,8 C 2,8 C 91 % 1000,9 hPa 0,0 l/m 0,00 h 0,00 h 0,0 UV-I 0 W/m 18,3 km/h (3 Bft)
27.12.2013 06:00 4,6 C 3,4 C 88 % 999,9 hPa 0,0 l/m 0,00 h 0,00 h 0,0 UV-I 0 W/m 18,9 km/h (3 Bft)
27.12.2013 07:00 5,5 C 4,2 C 85 % 998,6 hPa 0,0 l/m 0,00 h 0,00 h 0,0 UV-I 0 W/m 19,2 km/h (3 Bft)
27.12.2013 08:00 6,5 C 5,1 C 80 % 997,7 hPa 0,0 l/m 0,00 h 0,00 h 0,0 UV-I 6 W/m 26,2 km/h (4 Bft)
27.12.2013 09:00 6,9 C 5,6 C 79 % 996,5 hPa 0,0 l/m 0,00 h 0,00 h 0,0 UV-I 22 W/m 31,9 km/h (5 Bft)
27.12.2013 10:00 7,5 C 6,3 C 78 % 997,0 hPa 0,0 l/m 0,00 h 0,00 h 0,0 UV-I 41 W/m 29,3 km/h (5 Bft)
27.12.2013 11:00 8,0 C 6,3 C 82 % 996,5 hPa 0,0 l/m 0,00 h 0,50 h 0,0 UV-I 49 W/m 26,9 km/h (4 Bft)
27.12.2013 12:00 8,2 C 6,0 C 86 % 996,0 hPa 0,2 l/m 0,00 h 0,57 h 0,0 UV-I 28 W/m 21,0 km/h (4 Bft)
27.12.2013 13:00 9,1 C 7,1 C 84 % 995,5 hPa 0,0 l/m 0,00 h 0,03 h 0,0 UV-I 38 W/m 22,7 km/h (4 Bft)
27.12.2013 14:00 9,3 C 6,7 C 86 % 995,6 hPa 0,2 l/m 0,00 h 0,60 h 0,0 UV-I 21 W/m 19,3 km/h (3 Bft)
27.12.2013 15:00 8,5 C 6,4 C 90 % 995,5 hPa 0,0 l/m 0,00 h 0,20 h 0,0 UV-I 10 W/m 18,1 km/h (3 Bft)
27.12.2013 16:00 8,7 C 6,7 C 90 % 995,5 hPa 0,0 l/m 0,00 h 0,00 h 0,0 UV-I 6 W/m 18,7 km/h (3 Bft)
27.12.2013 17:00 9,1 C 7,0 C 87 % 995,5 hPa 0,0 l/m 0,00 h 0,00 h 0,0 UV-I 0 W/m 18,5 km/h (3 Bft)
27.12.2013 18:00 9,2 C 7,5 C 87 % 995,5 hPa 0,0 l/m 0,00 h 0,03 h 0,0 UV-I 0 W/m 19,7 km/h (3 Bft)
27.12.2013 19:00 9,5 C 7,8 C 88 % 995,4 hPa 0,0 l/m 0,00 h 0,37 h 0,0 UV-I 0 W/m 19,0 km/h (3 Bft)
27.12.2013 20:00 10,1 C 8,1 C 93 % 995,7 hPa 0,4 l/m 0,00 h 0,73 h 0,0 UV-I 0 W/m 22,0 km/h (4 Bft)
27.12.2013 21:00 9,8 C 7,8 C 95 % 995,8 hPa 0,4 l/m 0,00 h 0,37 h 0,0 UV-I 0 W/m 20,2 km/h (4 Bft)
27.12.2013 22:00 9,8 C 7,8 C 95 % 995,6 hPa 0,2 l/m 0,00 h 0,40 h 0,0 UV-I 0 W/m 15,5 km/h (3 Bft)
27.12.2013 23:00 9,7 C 7,9 C 95 % 995,1 hPa 0,0 l/m 0,00 h 0,30 h 0,0 UV-I 0 W/m 20,6 km/h (4 Bft)
28.12.2013 00:00 10,1 C 8,3 C 95 % 995,1 hPa 0,6 l/m 0,00 h 0,87 h 0,0 UV-I 0 W/m 14,9 km/h (3 Bft)
28.12.2013 01:00 10,5 C 8,9 C 96 % 994,8 hPa 0,8 l/m 0,00 h 0,83 h 0,0 UV-I 0 W/m 12,2 km/h (2 Bft)
28.12.2013 02:00 10,7 C 8,5 C 95 % 994,8 hPa 1,6 l/m 0,00 h 0,97 h 0,0 UV-I 0 W/m 18,5 km/h (3 Bft)
28.12.2013 03:00 8,4 C 6,3 C 93 % 995,7 hPa 2,4 l/m 0,00 h 1,00 h 0,0 UV-I 0 W/m 2,3 km/h (1 Bft)
28.12.2013 04:00 7,6 C 6,1 C 95 % 995,8 hPa 0,6 l/m 0,00 h 1,00 h 0,0 UV-I 0 W/m 0,0 km/h (0 Bft)
28.12.2013 05:00 7,4 C 6,1 C 96 % 995,9 hPa 1,4 l/m 0,00 h 1,00 h 0,0 UV-I 0 W/m 0,0 km/h (0 Bft)
28.12.2013 06:00 7,2 C 5,9 C 96 % 996,5 hPa 2,0 l/m 0,00 h 1,00 h 0,0 UV-I 0 W/m 0,2 km/h (0 Bft)
28.12.2013 07:00 7,0 C 5,7 C 97 % 997,0 hPa 1,8 l/m 0,00 h 1,00 h 0,0 UV-I 0 W/m 0,4 km/h (0 Bft)
28.12.2013 08:00 6,5 C 5,1 C 97 % 997,8 hPa 1,2 l/m 0,00 h 1,00 h 0,0 UV-I 0 W/m 0,1 km/h (0 Bft)
28.12.2013 09:00 6,3 C 5,1 C 97 % 998,6 hPa 0,8 l/m 0,00 h 0,77 h 0,0 UV-I 14 W/m 0,1 km/h (0 Bft)
28.12.2013 10:00 6,5 C 5,6 C 97 % 999,6 hPa 0,0 l/m 0,00 h 0,10 h 0,0 UV-I 37 W/m 0,2 km/h (0 Bft)
28.12.2013 11:00 6,9 C 6,1 C 98 % 1000,0 hPa 0,0 l/m 0,00 h 0,00 h 0,0 UV-I 73 W/m 1,0 km/h (0 Bft)
28.12.2013 12:00 7,3 C 6,2 C 98 % 1000,5 hPa 0,0 l/m 0,10 h 0,00 h 0,0 UV-I 114 W/m 4,1 km/h (1 Bft)
28.12.2013 13:00 8,0 C 6,4 C 94 % 1000,2 hPa 0,0 l/m 0,53 h 0,00 h 0,0 UV-I 147 W/m 5,0 km/h (1 Bft)
28.12.2013 14:00 7,9 C 6,6 C 92 % 1000,5 hPa 0,0 l/m 0,00 h 0,00 h 0,0 UV-I 62 W/m 2,0 km/h (1 Bft)
28.12.2013 15:00 7,6 C 6,0 C 93 % 1000,9 hPa 0,0 l/m 0,00 h 0,00 h 0,0 UV-I 36 W/m 0,3 km/h (0 Bft)
28.12.2013 16:00 7,2 C 5,3 C 94 % 1001,4 hPa 0,0 l/m 0,00 h 0,00 h 0,0 UV-I 8 W/m 0,0 km/h (0 Bft)
28.12.2013 17:00 6,9 C 5,0 C 94 % 1001,8 hPa 0,0 l/m 0,00 h 0,00 h 0,0 UV-I 0 W/m 0,0 km/h (0 Bft)
28.12.2013 18:00 6,7 C 5,1 C 95 % 1002,3 hPa 0,0 l/m 0,00 h 0,00 h 0,0 UV-I 0 W/m 0,3 km/h (0 Bft)
28.12.2013 19:00 6,7 C 5,0 C 96 % 1002,6 hPa 0,0 l/m 0,00 h 0,00 h 0,0 UV-I 0 W/m 0,4 km/h (0 Bft)
28.12.2013 20:00 6,6 C 5,0 C 96 % 1003,6 hPa 0,0 l/m 0,00 h 0,00 h 0,0 UV-I 0 W/m 1,1 km/h (1 Bft)
28.12.2013 21:00 6,4 C 5,0 C 96 % 1004,0 hPa 0,0 l/m 0,00 h 0,00 h 0,0 UV-I 0 W/m 0,0 km/h (0 Bft)
28.12.2013 22:00 6,3 C 5,0 C 96 % 1004,8 hPa 0,0 l/m 0,00 h 0,00 h 0,0 UV-I 0 W/m 1,9 km/h (1 Bft)
28.12.2013 23:00 6,3 C 5,0 C 96 % 1005,5 hPa 0,0 l/m 0,00 h 0,00 h 0,0 UV-I 0 W/m 2,8 km/h (1 Bft)
29.12.2013 00:00 6,2 C 5,0 C 95 % 1006,0 hPa 0,0 l/m 0,00 h 0,00 h 0,0 UV-I 0 W/m 3,7 km/h (1 Bft)
29.12.2013 01:00 6,1 C 4,5 C 94 % 1006,6 hPa 0,0 l/m 0,00 h 0,00 h 0,0 UV-I 0 W/m 8,7 km/h (2 Bft)
29.12.2013 02:00 5,8 C 4,3 C 93 % 1007,2 hPa 0,0 l/m 0,00 h 0,00 h 0,0 UV-I 0 W/m 8,7 km/h (2 Bft)
29.12.2013 03:00 5,7 C 4,3 C 91 % 1008,1 hPa 0,0 l/m 0,00 h 0,00 h 0,0 UV-I 0 W/m 12,0 km/h (2 Bft)
29.12.2013 04:00 5,9 C 4,3 C 90 % 1008,5 hPa 0,0 l/m 0,00 h 0,20 h 0,0 UV-I 0 W/m 12,5 km/h (3 Bft)
29.12.2013 05:00 5,9 C 4,3 C 90 % 1008,9 hPa 0,4 l/m 0,00 h 0,37 h 0,0 UV-I 0 W/m 9,1 km/h (2 Bft)
29.12.2013 06:00 5,6 C 3,9 C 93 % 1009,6 hPa 0,2 l/m 0,00 h 0,37 h 0,0 UV-I 0 W/m 6,3 km/h (2 Bft)
29.12.2013 07:00 5,6 C 3,9 C 94 % 1010,4 hPa 0,4 l/m 0,00 h 0,47 h 0,0 UV-I 0 W/m 8,8 km/h (2 Bft)
29.12.2013 08:00 5,5 C 3,9 C 95 % 1011,5 hPa 0,2 l/m 0,00 h 0,60 h 0,0 UV-I 5 W/m 10,7 km/h (2 Bft)
29.12.2013 09:00 5,2 C 3,6 C 95 % 1012,8 hPa 0,0 l/m 0,00 h 0,03 h 0,0 UV-I 15 W/m 9,3 km/h (2 Bft)
29.12.2013 10:00 4,7 C 3,4 C 95 % 1014,1 hPa 0,0 l/m 0,57 h 0,00 h 0,0 UV-I 91 W/m 5,9 km/h (2 Bft)
29.12.2013 11:00 5,7 C 4,1 C 93 % 1014,8 hPa 0,0 l/m 0,67 h 0,00 h 0,0 UV-I 156 W/m 11,4 km/h (2 Bft)
29.12.2013 12:00 5,8 C 4,4 C 92 % 1015,4 hPa 0,0 l/m 0,00 h 0,00 h 0,0 UV-I 80 W/m 11,0 km/h (2 Bft)
29.12.2013 13:00 6,2 C 5,0 C 91 % 1016,3 hPa 0,0 l/m 0,10 h 0,00 h 0,0 UV-I 104 W/m 8,7 km/h (2 Bft)
29.12.2013 14:00 6,4 C 5,0 C 89 % 1017,0 hPa 0,0 l/m 0,63 h 0,00 h 0,0 UV-I 135 W/m 9,1 km/h (2 Bft)
29.12.2013 15:00 6,2 C 4,4 C 88 % 1017,6 hPa 0,0 l/m 0,00 h 0,00 h 0,0 UV-I 34 W/m 7,5 km/h (2 Bft)
29.12.2013 16:00 5,4 C 3,5 C 90 % 1018,8 hPa 0,0 l/m 0,00 h 0,00 h 0,0 UV-I 11 W/m 1,8 km/h (1 Bft)
29.12.2013 17:00 4,7 C 2,6 C 91 % 1019,8 hPa 0,0 l/m 0,00 h 0,00 h 0,0 UV-I 0 W/m 0,1 km/h (0 Bft)
29.12.2013 18:00 4,0 C 2,0 C 92 % 1020,7 hPa 0,0 l/m 0,00 h 0,00 h 0,0 UV-I 0 W/m 2,9 km/h (1 Bft)
29.12.2013 19:00 3,8 C 2,2 C 93 % 1021,3 hPa 0,0 l/m 0,00 h 0,00 h 0,0 UV-I 0 W/m 4,0 km/h (1 Bft)
29.12.2013 20:00 3,5 C 1,8 C 93 % 1021,9 hPa 0,0 l/m 0,00 h 0,00 h 0,0 UV-I 0 W/m 3,7 km/h (1 Bft)
29.12.2013 21:00 3,2 C 1,7 C 94 % 1022,5 hPa 0,0 l/m 0,00 h 0,00 h 0,0 UV-I 0 W/m 2,5 km/h (1 Bft)
29.12.2013 22:00 3,1 C 1,7 C 94 % 1022,9 hPa 0,0 l/m 0,00 h 0,00 h 0,0 UV-I 0 W/m 5,4 km/h (1 Bft)
29.12.2013 23:00 3,0 C 1,3 C 94 % 1023,3 hPa 0,0 l/m 0,00 h 0,00 h 0,0 UV-I 0 W/m 2,1 km/h (1 Bft)
Min-Datum _ 25.12.13 25.12.13 24.12.13 25.12.13 - - - - - 23.12.13
_ Min-Zeit 22:46 22:06 05:46 03:20 - - - - - 02:44
Minimum _ 2,4 C 0,6 C 65 % 983,5 hPa - - - - - 0,0 km/h (0 Bft)
Max-Datum _ 24.12.13 24.12.13 26.12.13 29.12.13 25.12.13 23.12.13 23.12.13 23.12.13 23.12.13 24.12.13
_ Max-Zeit 16:22 14:32 08:18 23:58 03:24 10:16 02:10 00:00 13:10 07:06
Maximum _ 12,9 C 11,1 C 100 % 1023,6 hPa 2,8 l/m 0,03 h 0,03 h 0,0 UV-I 292 W/m 64,4 km/h
S (8 Bft)
Durchschnitt _ 7,4 C 5,7 C 89 % 1000,1 hPa #29,6 l/m #5:18 h #34:18 h 0,0 UV-I 54 W/m 11,6 km/h (2 Bft)
© 2013 W. Hausmann